Forside
METAR-TAF:

METAR-TAF

Lufthavne :

Tri-Township Airport

Savanna, Illinois, USA

Breddekreds: 42-02-45N, længdekreds: 090-06-28W, højde: 188 m

Aktuelle vejr

Denne rapport blev lavet for 34 minutter siden, kl. 01:55 UTC
Vind 12 kt fra vestnordvest med vindstød på up til 15 kt
Temperatur -3°C
Fugtighed 63%
Tryk 1019 hPa
Sigt: 16.1 km
skyfri

METAR: KSFY 280155Z AUTO 30012G15KT 10SM CLR M03/M09 A3010 RMK AO2

Tid: 20:29 (02:29 UTC)


TAF: fraværende

Vejrobservationer og prognoser fra mere end 4000 lufthavne (METAR og TAF).

De gule og røde prikker repræsenterer de meteorologiske stationer.

Flyt musen over at se navnet på stationen.

Så klik over at se vejr observationer og prognoser.

At skifte det kort: Klik på de grønne knapper med et sort kors for at zoome ind; på den grønne knap med en bindestreg for at zoome ud; eller på de grønne pile for tilstødende kort.


METAR-TAF: